Great Falls International Airport
KGTF : rendu visible

Aérodrome :











RETROUVEZ-NOUS SUR...

 
LOGIN :

S'inscrire | Disclaimer

   EN    FR    IT 

 









Légende :    VFR   VFR Marginal   IFR   IFR Intensif   IFR Très Intensif
Visi : 
Plafond : 
>= 8 km
>= 3000ft
5 à 8 km
1000 à 3000 ft
1500m à 5 km
500 à 1000 ft
800 à 1500m
200 à 500 ft
< 800m
< 200 ft
Symboles :   Orages  Brouillard  Fortes neiges  Fortes précipitations  Vent > 20 kt






- Altitude de l'aérodrome : 3680 ft
- Code IATA : GTF


KGTF - Great Falls International

DERNIER METAR :
  • 100753Z 18003KT 9SM OVC095 M08/M10 A3008 RMK AO2 SLP240 T10781100

METARs EXPIRÉS :
  • 100653Z 09003KT 10SM OVC100 M08/M09 A3009 RMK AO2 SLP244 T10781094 400171139
  • 100553Z 09005KT 10SM OVC100 M08/M11 A3009 RMK AO2 SLP246 T10831106 11028 21089 58000

TAF KGTF
Valide du 10 à 06h jusqu'au 11 à 06h UTC


100520Z 1006/1106 VRB05KT P6SM BKN030
TEMPO 1007/1009 3SM BR OVC004
FM101000 22010KT P6SM OVC070
FM102100 22012KT P6SM BKN120



MET'MAP, la Météo Aéronautique d'un coup d'oeil ! - Copyright ORBIFLY Décembre 2007 - Disclaimer

ORBIFLY MET'MAP TEAM :

Programmation & Développement : Alexandra Zaïnal
Sur une idée originale de : Baudouin d'Aumeries
Assistance à la programmation : Marc-Olivier Méhu
Soutien technique & logistique : Manuel Goepfert

Contact : metmap@orbifly.com




SOURCES & CREDITS :

   NOAA       Earth
Advisory